LiveATC.Net - Listen to live air traffic control over the Internet!


ICAO: 1G3  IATA: 1G3   Airport: Kent State University Airport
City: Kent   State/Province: Ohio
Country: United States   Continent: North America
KAKR METAR Weather: KAKR 011654Z AUTO 21018G28KT 10SM FEW016 13/09 A2948 RMK AO2 PK WND 19029/1636 RAE1555 SLP978 P0000 T01330094 TSNO
1G3 Flight Activity (FlightAware)
1G3 Airport Info   (AirNav) (iFlightPlanner)
1G3 VFR Sectional Chart   (iFlightPlanner) 
1G3 IFR Low Chart   (iFlightPlanner) 
1G3 CTAF
Feed Status: UP   Listeners: 0
Listen right in your browser - requires Flash (in browser, requires Flash)
Click here to listen with your own player (launches your MP3 player)
1G3 CTAF Audio Archives
FacilityFrequency
Kent CTAF122.725


NOTICE

Unauthorized use prohibited. See LiveATC.net Terms of Service


Find LiveATC Audio Streams


Airport/ARTCC Code

Frequency Search
(e.g., 124.400, 128.75)
Site-wide search
 


Browse LiveATC Feeds
LiveATC Coverage Map
Top 50 LiveATC Feeds
Bad Weather Areas

LiveATC FAQ
Offer a LiveATC Feed
Contact LiveATC.net
Press Inquiries

LiveATC on iPhone
LiveATC on Android

Windows Phone
Windows 8/10

LiveATC Mobile
(Mobile browser)

ATC Audio Archives
Interesting Recordings

LiveATC Forums


Home Page
About LiveATC.net
Make a Donation
LiveATC Store

Terms of Use
Privacy Policy

Canadian Air Freqs

AIRMETs/SIGMETs

FAA Airport Status
Nat'l Airspace Status
Arrival Demand Charts


Server Software By:
Icecast.org
Liquidsoap